Time;durP1;ratioP1;P1;durP2;ratioP2;P2;SDS_P1;SDS_P2;PMS_P1;PMS_P2;Temp;Humidity;BMP_temperature;BMP_pressure;BME280_temperature;BME280_humidity;BME280_pressure;Samples;Min_cycle;Max_cycle;Signal;HPM_P1;HPM_P2
2022/08/29 00:00:38;;;;;;;3.20;1.10;;;20.90;57.10;;;;;;2091291;28;20020;-90
2022/08/29 00:01:38;;;;;;;3.70;1.20;;;20.90;57.30;;;;;;2091272;28;20103;-87
2022/08/29 00:02:39;;;;;;;3.00;1.30;;;20.90;57.80;;;;;;2090803;28;20508;-88
2022/08/29 00:03:40;;;;;;;3.23;1.57;;;20.90;57.40;;;;;;2090451;28;20032;-87
2022/08/29 00:04:41;;;;;;;3.90;1.83;;;20.90;57.00;;;;;;2101051;28;20032;-87
2022/08/29 00:05:42;;;;;;;2.87;1.30;;;20.90;57.00;;;;;;2099757;28;20037;-87
2022/08/29 00:06:43;;;;;;;4.20;1.30;;;20.90;57.20;;;;;;2095507;28;20082;-87
2022/08/29 00:07:44;;;;;;;2.80;1.00;;;20.90;57.00;;;;;;2099555;28;20036;-88
2022/08/29 00:08:45;;;;;;;3.47;1.30;;;20.80;57.10;;;;;;2098150;28;20123;-87
2022/08/29 00:09:45;;;;;;;2.17;1.20;;;20.80;57.00;;;;;;2081980;28;20041;-88
2022/08/29 00:10:47;;;;;;;2.20;1.20;;;20.80;57.20;;;;;;2091198;28;20040;-87
2022/08/29 00:11:47;;;;;;;1.88;1.10;;;20.80;57.10;;;;;;2103638;28;20031;-86
2022/08/29 00:12:48;;;;;;;4.37;1.17;;;20.90;57.00;;;;;;2091307;28;20029;-89
2022/08/29 00:13:49;;;;;;;3.20;1.37;;;20.80;57.10;;;;;;2089707;28;20067;-88
2022/08/29 00:14:50;;;;;;;3.67;1.07;;;20.80;57.20;;;;;;2075753;28;20026;-88
2022/08/29 00:15:51;;;;;;;2.13;1.17;;;20.90;57.20;;;;;;2082328;28;20022;-89
2022/08/29 00:16:51;;;;;;;2.20;1.00;;;20.80;56.80;;;;;;2082913;28;20026;-90
2022/08/29 00:17:52;;;;;;;3.47;1.13;;;20.80;56.90;;;;;;2091263;28;20356;-87
2022/08/29 00:18:53;;;;;;;1.63;1.10;;;20.80;57.00;;;;;;2106054;28;20085;-90
2022/08/29 00:19:54;;;;;;;3.00;1.43;;;20.80;57.10;;;;;;2099264;28;20459;-90
2022/08/29 00:20:55;;;;;;;4.00;0.90;;;20.80;57.00;;;;;;2099673;28;20025;-89
2022/08/29 00:21:56;;;;;;;1.77;1.00;;;20.80;56.90;;;;;;2086461;28;20398;-90
2022/08/29 00:22:57;;;;;;;4.40;1.10;;;20.80;56.80;;;;;;2090457;28;20033;-90
2022/08/29 00:23:58;;;;;;;1.67;1.25;;;20.80;56.90;;;;;;2091069;28;20025;-88
2022/08/29 00:25:03;;;;;;;2.80;1.00;;;20.80;56.90;;;;;;2099411;28;20032;-89
2022/08/29 00:26:04;;;;;;;2.65;1.10;;;20.80;56.90;;;;;;2107284;28;20028;-88
2022/08/29 00:27:05;;;;;;;1.90;0.90;;;20.80;57.00;;;;;;2099378;28;20267;-88
2022/08/29 00:28:06;;;;;;;1.90;1.10;;;20.80;57.00;;;;;;2091089;28;20088;-89
2022/08/29 00:29:07;;;;;;;1.90;1.30;;;20.70;57.00;;;;;;2096948;28;20103;-89
2022/08/29 00:30:08;;;;;;;5.00;1.50;;;20.70;57.00;;;;;;2091038;28;20025;-90
2022/08/29 00:31:09;;;;;;;2.22;1.08;;;20.70;57.10;;;;;;2091290;28;20021;-90
2022/08/29 00:32:10;;;;;;;4.13;1.17;;;20.70;57.00;;;;;;2091123;28;20352;-89
2022/08/29 00:33:12;;;;;;;1.20;0.80;;;20.70;57.20;;;;;;2099338;28;20028;-90
2022/08/29 00:34:12;;;;;;;;;;;20.70;57.60;;;;;;2091737;28;20422;-88
2022/08/29 00:35:17;;;;;;;2.88;1.30;;;20.70;57.30;;;;;;2099241;28;19939;-88
2022/08/29 00:36:18;;;;;;;2.35;1.15;;;20.70;57.60;;;;;;2098694;28;20033;-90
2022/08/29 00:37:19;;;;;;;4.03;1.07;;;20.70;57.60;;;;;;2091001;28;20304;-88
2022/08/29 00:38:20;;;;;;;2.53;1.23;;;20.60;57.50;;;;;;2090930;28;20060;-88
2022/08/29 00:39:21;;;;;;;2.22;1.10;;;20.70;57.60;;;;;;2089683;28;20025;-87
2022/08/29 00:40:30;;;;;;;1.93;1.10;;;20.70;57.50;;;;;;2090615;28;20040;-88
2022/08/29 00:41:30;;;;;;;4.93;1.10;;;20.60;57.50;;;;;;2091986;28;20041;-87
2022/08/29 00:42:34;;;;;;;3.50;1.33;;;20.60;57.60;;;;;;2077049;28;20817;-88
2022/08/29 00:43:36;;;;;;;2.58;1.30;;;20.60;57.70;;;;;;2083018;28;20111;-88
2022/08/29 00:44:36;;;;;;;2.53;1.15;;;20.60;57.80;;;;;;2091315;28;20308;-87
2022/08/29 00:45:44;;;;;;;4.17;1.77;;;20.60;57.70;;;;;;2096677;28;20041;-89
2022/08/29 00:46:53;;;;;;;3.22;1.10;;;20.60;58.00;;;;;;2092078;28;20092;-87
2022/08/29 00:48:01;;;;;;;2.50;0.95;;;20.60;57.80;;;;;;2098166;28;20276;-89
2022/08/29 00:49:07;;;;;;;2.25;1.33;;;20.60;57.70;;;;;;2092409;28;20266;-89
2022/08/29 00:50:12;;;;;;;3.60;0.85;;;20.70;57.80;;;;;;2090917;28;20290;-90
2022/08/29 00:51:16;;;;;;;2.95;1.30;;;20.70;57.90;;;;;;2095480;28;20263;-87
2022/08/29 00:52:33;;;;;;;1.83;1.17;;;20.60;57.70;;;;;;2091117;28;20262;-89
2022/08/29 00:58:00;;;;;;;4.05;1.30;;;20.70;57.90;;;;;;2101042;28;20284;-90
2022/08/29 00:59:14;;;;;;;2.85;1.15;;;20.70;58.50;;;;;;2099938;28;20358;-87
2022/08/29 01:00:16;;;;;;;5.35;1.45;;;20.70;58.10;;;;;;2099311;28;20314;-90
2022/08/29 01:01:17;;;;;;;;;;;20.60;57.90;;;;;;2091779;28;20312;-88
2022/08/29 01:02:18;;;;;;;3.10;1.48;;;20.70;58.10;;;;;;2098795;28;19904;-89
2022/08/29 01:03:19;;;;;;;5.13;1.53;;;20.70;58.20;;;;;;2091076;28;20258;-87
2022/08/29 01:04:20;;;;;;;3.10;1.30;;;20.70;58.00;;;;;;2090869;28;20024;-87
2022/08/29 01:05:21;;;;;;;3.15;1.33;;;20.70;57.80;;;;;;2082686;28;20752;-88
2022/08/29 01:06:25;;;;;;;1.88;1.02;;;20.70;58.00;;;;;;2082736;28;20041;-90
2022/08/29 01:07:26;;;;;;;2.25;1.10;;;20.70;58.00;;;;;;2091200;28;20120;-90
2022/08/29 01:08:29;;;;;;;4.70;1.57;;;20.60;58.10;;;;;;2099191;28;20269;-90
2022/08/29 01:09:30;;;;;;;2.20;1.25;;;20.60;58.10;;;;;;2098142;28;20040;-91
2022/08/29 01:15:30;;;;;;;3.10;1.00;;;20.60;58.40;;;;;;2101727;28;20226;-89
2022/08/29 01:16:31;;;;;;;3.50;1.23;;;20.60;58.40;;;;;;2099149;28;20446;-89
2022/08/29 01:17:44;;;;;;;2.72;1.35;;;20.50;58.40;;;;;;2090678;28;20758;-89
2022/08/29 01:18:50;;;;;;;2.88;1.20;;;20.60;58.40;;;;;;2092398;28;20414;-90
2022/08/29 01:19:53;;;;;;;1.80;1.13;;;20.60;58.40;;;;;;2091688;28;20361;-91
2022/08/29 01:21:20;;;;;;;2.70;1.20;;;20.60;58.50;;;;;;2099460;28;20253;-91
2022/08/29 01:22:32;;;;;;;1.92;1.10;;;20.60;58.40;;;;;;2101838;28;20264;-88
2022/08/29 01:27:42;;;;;;;4.63;1.48;;;20.60;58.50;;;;;;2099061;28;20303;-89
2022/08/29 01:28:49;;;;;;;1.65;1.10;;;20.60;58.50;;;;;;2086503;28;20293;-89
2022/08/29 01:29:50;;;;;;;2.13;1.30;;;20.60;58.60;;;;;;2084360;28;20254;-89
2022/08/29 01:31:04;;;;;;;1.63;0.87;;;20.60;58.40;;;;;;2097734;28;20292;-89
2022/08/29 01:32:05;;;;;;;2.60;1.08;;;20.60;58.50;;;;;;2087422;28;20029;-90
2022/08/29 01:33:06;;;;;;;3.47;1.20;;;20.60;58.50;;;;;;2099027;28;20265;-88
2022/08/29 01:34:07;;;;;;;3.57;1.40;;;20.60;59.20;;;;;;2096612;28;20117;-88
2022/08/29 01:35:09;;;;;;;2.60;1.30;;;20.60;58.60;;;;;;2099110;28;20021;-87
2022/08/29 01:36:14;;;;;;;3.03;1.13;;;20.60;58.50;;;;;;2098425;28;20021;-88
2022/08/29 01:37:16;;;;;;;5.38;1.40;;;20.60;58.70;;;;;;2099575;28;20048;-89
2022/08/29 01:38:26;;;;;;;3.58;1.30;;;20.60;58.70;;;;;;2090931;28;20313;-88
2022/08/29 01:39:33;;;;;;;3.45;1.30;;;20.60;58.70;;;;;;2091424;28;20024;-90
2022/08/29 01:40:34;;;;;;;2.25;1.40;;;20.60;58.90;;;;;;2084020;28;20366;-88
2022/08/29 01:41:35;;;;;;;3.20;1.50;;;20.60;58.90;;;;;;2082447;28;20259;-88
2022/08/29 01:42:36;;;;;;;5.43;1.63;;;20.60;58.80;;;;;;2079104;28;20091;-87
2022/08/29 01:43:42;;;;;;;3.70;1.30;;;20.60;58.80;;;;;;2082507;28;20076;-89
2022/08/29 01:44:57;;;;;;;1.80;1.20;;;20.60;58.90;;;;;;2084073;28;20459;-89
2022/08/29 01:45:57;;;;;;;3.38;1.50;;;20.60;58.90;;;;;;2084240;28;20258;-89
2022/08/29 01:46:59;;;;;;;2.67;1.30;;;20.50;58.90;;;;;;2082568;28;20396;-89
2022/08/29 01:48:00;;;;;;;;;;;20.50;59.20;;;;;;2099371;28;20036;-89
2022/08/29 01:49:03;;;;;;;2.55;1.25;;;20.60;59.00;;;;;;2092543;28;19970;-90
2022/08/29 01:50:11;;;;;;;2.95;1.10;;;20.50;59.20;;;;;;2099160;28;20047;-90
2022/08/29 01:51:13;;;;;;;4.07;1.20;;;20.50;59.00;;;;;;2090502;28;20261;-88
2022/08/29 01:52:14;;;;;;;;;;;20.50;59.10;;;;;;2083383;28;20401;-89
2022/08/29 01:53:15;;;;;;;2.50;1.73;;;20.50;59.00;;;;;;2100528;28;20341;-89
2022/08/29 01:54:17;;;;;;;3.78;1.02;;;20.50;59.20;;;;;;2092446;28;20119;-90
2022/08/29 01:55:18;;;;;;;3.65;1.30;;;20.60;59.20;;;;;;2092420;28;20116;-90
2022/08/29 01:56:22;;;;;;;2.30;1.00;;;20.60;59.20;;;;;;2094287;28;20025;-88
2022/08/29 01:57:22;;;;;;;2.60;1.05;;;20.60;59.20;;;;;;2100878;28;20024;-89
2022/08/29 01:58:23;;;;;;;2.90;1.27;;;20.50;59.30;;;;;;2100466;28;20253;-88
2022/08/29 01:59:26;;;;;;;2.70;1.13;;;20.50;59.20;;;;;;2100458;28;20035;-89
2022/08/29 02:00:26;;;;;;;2.78;1.50;;;20.50;59.40;;;;;;2092468;28;20044;-88
2022/08/29 02:01:33;;;;;;;2.30;1.00;;;20.50;59.40;;;;;;2083910;28;20266;-89
2022/08/29 02:02:34;;;;;;;4.53;1.35;;;20.50;59.40;;;;;;2084788;28;20026;-89
2022/08/29 02:03:34;;;;;;;2.20;1.27;;;20.50;59.40;;;;;;2085738;28;20286;-90
2022/08/29 02:04:36;;;;;;;2.20;1.13;;;20.50;59.30;;;;;;2084717;28;20467;-90
2022/08/29 02:05:38;;;;;;;3.15;1.40;;;20.50;59.50;;;;;;2092055;28;20043;-89
2022/08/29 02:06:39;;;;;;;3.88;1.27;;;20.50;59.60;;;;;;2084020;28;20459;-87
2022/08/29 02:07:39;;;;;;;1.53;1.10;;;20.50;59.60;;;;;;2083967;28;20040;-90
2022/08/29 02:08:42;;;;;;;3.40;1.10;;;20.50;59.60;;;;;;2092114;28;20091;-88
2022/08/29 02:09:44;;;;;;;2.38;1.17;;;20.50;59.70;;;;;;2083733;28;20029;-88
2022/08/29 02:10:47;;;;;;;7.80;1.13;;;20.50;59.80;;;;;;2076038;28;20275;-88
2022/08/29 02:11:48;;;;;;;3.95;1.48;;;20.40;60.00;;;;;;2092349;28;20032;-89
2022/08/29 02:12:48;;;;;;;1.77;1.00;;;20.40;59.90;;;;;;2092296;28;20250;-88
2022/08/29 02:13:54;;;;;;;1.63;1.10;;;20.40;60.20;;;;;;2100394;28;20387;-90
2022/08/29 02:14:55;;;;;;;2.75;1.20;;;20.40;60.40;;;;;;2094639;28;20025;-90
2022/08/29 02:15:56;;;;;;;4.00;1.40;;;20.30;60.40;;;;;;2091579;28;20270;-90
2022/08/29 02:16:57;;;;;;;3.30;1.70;;;20.30;60.40;;;;;;2083780;28;20022;-90
2022/08/29 02:17:57;;;;;;;3.07;1.40;;;20.30;60.50;;;;;;2075720;28;20022;-88
2022/08/29 02:18:59;;;;;;;4.50;1.10;;;20.30;60.60;;;;;;2089810;28;20021;-88
2022/08/29 02:20:00;;;;;;;3.17;1.38;;;20.30;60.50;;;;;;2105653;28;20024;-90
2022/08/29 02:21:01;;;;;;;2.80;1.15;;;20.30;60.60;;;;;;2100431;28;20036;-90
2022/08/29 02:22:04;;;;;;;3.38;1.60;;;20.40;60.50;;;;;;2092647;28;20020;-88
2022/08/29 02:23:04;;;;;;;2.75;1.10;;;20.30;60.50;;;;;;2091409;28;20494;-90
2022/08/29 02:24:06;;;;;;;3.70;1.23;;;20.40;60.50;;;;;;2083765;28;20250;-90
2022/08/29 02:26:27;;;;;;;2.42;1.15;;;20.40;60.50;;;;;;2094730;28;20029;-90
2022/08/29 02:27:30;;;;;;;3.30;1.10;;;20.40;60.50;;;;;;2090966;28;20269;-88
2022/08/29 02:28:34;;;;;;;2.92;1.30;;;20.40;60.70;;;;;;2092744;28;20383;-88
2022/08/29 02:29:36;;;;;;;2.38;1.10;;;20.40;60.50;;;;;;2099564;28;20274;-89
2022/08/29 02:30:48;;;;;;;3.00;1.38;;;20.30;60.60;;;;;;2091963;28;20347;-88
2022/08/29 02:31:49;;;;;;;2.33;1.20;;;20.30;60.50;;;;;;2093623;28;20548;-88
2022/08/29 02:32:50;;;;;;;3.90;1.20;;;20.30;60.70;;;;;;2092173;28;20320;-88
2022/08/29 02:33:52;;;;;;;1.83;1.10;;;20.30;60.60;;;;;;2083546;28;20066;-89
2022/08/29 02:34:52;;;;;;;2.05;1.20;;;20.30;60.90;;;;;;2100519;28;20063;-90
2022/08/29 02:35:53;;;;;;;2.83;1.37;;;20.30;60.80;;;;;;2108059;28;20020;-89
2022/08/29 02:36:54;;;;;;;2.53;1.17;;;20.30;60.90;;;;;;2099553;28;20336;-91
2022/08/29 02:37:55;;;;;;;3.47;1.40;;;20.30;60.70;;;;;;2075568;28;20263;-89
2022/08/29 02:38:56;;;;;;;3.37;1.50;;;20.30;60.70;;;;;;2087052;28;20048;-89
2022/08/29 02:39:56;;;;;;;2.93;1.27;;;20.40;60.80;;;;;;2091896;28;20037;-89
2022/08/29 02:40:58;;;;;;;1.90;1.20;;;20.40;60.60;;;;;;2083639;28;20119;-90
2022/08/29 02:41:59;;;;;;;3.83;1.60;;;20.40;60.60;;;;;;2083748;28;20029;-90
2022/08/29 02:43:01;;;;;;;4.70;1.63;;;20.40;60.60;;;;;;2099398;28;20070;-88
2022/08/29 02:44:03;;;;;;;2.60;1.45;;;20.40;60.70;;;;;;2092020;28;20021;-88
2022/08/29 02:45:04;;;;;;;5.47;1.25;;;20.40;60.70;;;;;;2092083;28;20285;-88
2022/08/29 02:46:06;;;;;;;1.52;0.98;;;20.40;60.60;;;;;;2090076;28;20787;-88
2022/08/29 02:47:08;;;;;;;2.92;1.30;;;20.40;60.70;;;;;;2099375;28;20466;-88
2022/08/29 02:48:10;;;;;;;;;;;20.30;60.70;;;;;;2092399;28;20112;-89
2022/08/29 02:49:11;;;;;;;2.17;1.55;;;20.40;60.80;;;;;;2091448;28;19909;-90
2022/08/29 02:50:13;;;;;;;3.23;1.47;;;20.30;60.60;;;;;;2091824;28;20489;-90
2022/08/29 02:51:29;;;;;;;5.57;1.52;;;20.30;60.80;;;;;;2098421;28;20090;-90
2022/08/29 02:52:30;;;;;;;6.00;1.85;;;20.30;60.80;;;;;;2100126;28;20031;-89
2022/08/29 02:53:31;;;;;;;5.47;1.60;;;20.30;60.80;;;;;;2091079;28;20246;-90
2022/08/29 02:54:31;;;;;;;2.23;1.23;;;20.30;60.80;;;;;;2083581;28;20026;-91
2022/08/29 02:55:32;;;;;;;4.03;1.40;;;20.30;60.90;;;;;;2082907;28;20470;-88
2022/08/29 02:56:33;;;;;;;1.67;1.17;;;20.30;61.00;;;;;;2083488;28;20036;-88
2022/08/29 02:57:34;;;;;;;2.77;1.17;;;20.30;61.10;;;;;;2083619;28;20033;-88
2022/08/29 02:58:35;;;;;;;2.07;1.10;;;20.30;61.00;;;;;;2090921;28;20029;-88
2022/08/29 02:59:35;;;;;;;1.83;1.10;;;20.30;61.00;;;;;;2100021;28;20032;-89
2022/08/29 03:00:36;;;;;;;2.20;1.30;;;20.30;61.10;;;;;;2091845;28;20041;-89
2022/08/29 03:01:37;;;;;;;3.23;1.37;;;20.20;61.20;;;;;;2100149;28;20031;-88
2022/08/29 03:02:38;;;;;;;6.57;1.45;;;20.30;61.10;;;;;;2090997;28;20025;-89
2022/08/29 03:03:39;;;;;;;3.50;1.40;;;20.30;61.90;;;;;;2091385;28;20033;-89
2022/08/29 03:04:40;;;;;;;4.60;1.20;;;20.30;61.10;;;;;;2084898;28;20040;-90
2022/08/29 03:05:41;;;;;;;2.20;1.50;;;20.30;61.10;;;;;;2091700;28;20458;-89
2022/08/29 03:06:42;;;;;;;4.10;1.30;;;20.20;61.10;;;;;;2091706;28;20363;-88
2022/08/29 03:07:43;;;;;;;5.63;2.13;;;20.20;61.10;;;;;;2091731;28;20057;-90
2022/08/29 03:08:44;;;;;;;6.57;1.50;;;20.20;61.30;;;;;;2099896;28;20082;-89
2022/08/29 03:09:44;;;;;;;2.97;1.60;;;20.20;61.20;;;;;;2083755;28;20439;-89
2022/08/29 03:10:46;;;;;;;3.23;1.50;;;20.20;61.20;;;;;;2083522;28;20040;-91
2022/08/29 03:11:46;;;;;;;3.53;1.88;;;20.20;61.20;;;;;;2083519;28;20061;-87
2022/08/29 03:12:48;;;;;;;5.73;1.53;;;20.20;61.40;;;;;;2091990;28;20402;-90
2022/08/29 03:13:48;;;;;;;3.65;1.50;;;20.20;61.30;;;;;;2089998;28;20452;-88
2022/08/29 03:14:49;;;;;;;3.73;1.37;;;20.10;61.20;;;;;;2090637;28;20063;-88
2022/08/29 03:15:50;;;;;;;2.53;1.37;;;20.10;61.30;;;;;;2091080;28;20128;-89
2022/08/29 03:16:51;;;;;;;3.63;1.40;;;20.10;61.40;;;;;;2091610;28;20025;-89
2022/08/29 03:17:53;;;;;;;2.55;1.20;;;20.10;61.70;;;;;;2083441;28;20034;-90
2022/08/29 03:18:54;;;;;;;4.88;1.45;;;20.10;61.50;;;;;;2081939;28;20025;-90
2022/08/29 03:19:56;;;;;;;3.07;1.40;;;20.00;61.50;;;;;;2091701;28;20428;-89
2022/08/29 03:20:58;;;;;;;3.67;1.50;;;20.00;61.60;;;;;;2092055;28;20068;-89
2022/08/29 03:21:59;;;;;;;2.95;1.65;;;20.00;61.70;;;;;;2087253;28;20591;-89
2022/08/29 03:23:01;;;;;;;5.20;1.42;;;20.00;61.70;;;;;;2082995;28;20036;-88
2022/08/29 03:24:02;;;;;;;6.25;1.42;;;19.90;61.70;;;;;;2091591;28;20021;-91
2022/08/29 03:25:04;;;;;;;2.67;1.20;;;19.90;62.60;;;;;;2083409;28;20036;-88
2022/08/29 03:26:05;;;;;;;2.10;1.40;;;19.90;62.00;;;;;;2083920;28;20041;-88
2022/08/29 03:27:06;;;;;;;3.80;1.57;;;19.90;61.90;;;;;;2087374;28;20258;-88
2022/08/29 03:28:07;;;;;;;4.57;1.60;;;19.90;62.00;;;;;;2083578;28;20021;-89
2022/08/29 03:29:08;;;;;;;3.33;1.67;;;19.90;62.00;;;;;;2089685;28;20140;-90
2022/08/29 03:30:11;;;;;;;1.87;1.23;;;19.90;62.00;;;;;;2100247;28;20040;-90
2022/08/29 03:31:12;;;;;;;5.05;1.42;;;19.90;62.10;;;;;;2083917;28;20033;-88
2022/08/29 03:32:13;;;;;;;2.22;1.30;;;19.90;62.10;;;;;;2095778;28;20289;-90
2022/08/29 03:33:14;;;;;;;3.03;1.60;;;19.90;62.00;;;;;;2099910;28;20032;-90
2022/08/29 03:34:14;;;;;;;3.97;1.20;;;19.90;62.00;;;;;;2099665;28;20029;-88
2022/08/29 03:35:17;;;;;;;4.07;1.40;;;19.90;62.00;;;;;;2091454;28;20044;-88
2022/08/29 03:36:18;;;;;;;3.70;1.38;;;19.90;61.90;;;;;;2082809;28;20026;-87
2022/08/29 03:37:18;;;;;;;2.47;1.17;;;19.80;61.90;;;;;;2091555;28;20258;-90
2022/08/29 03:38:19;;;;;;;5.57;1.73;;;19.80;62.20;;;;;;2091474;28;20086;-88
2022/08/29 03:39:20;;;;;;;2.40;1.40;;;19.80;62.10;;;;;;2083151;28;20056;-90
2022/08/29 03:40:22;;;;;;;3.22;1.23;;;19.80;62.20;;;;;;2091536;28;20083;-88
2022/08/29 03:41:24;;;;;;;;;;;19.80;62.20;;;;;;2100224;28;20071;-89
2022/08/29 03:42:25;;;;;;;3.33;1.50;;;19.80;62.20;;;;;;2087072;28;19952;-88
2022/08/29 03:43:26;;;;;;;4.63;1.50;;;19.80;62.10;;;;;;2091547;28;20061;-90
2022/08/29 03:44:27;;;;;;;4.60;1.40;;;19.80;62.30;;;;;;2083176;28;20259;-89
2022/08/29 03:45:28;;;;;;;3.67;1.67;;;19.80;62.10;;;;;;2091566;28;20123;-88
2022/08/29 03:46:29;;;;;;;2.67;1.40;;;19.80;62.20;;;;;;2091493;28;20127;-91
2022/08/29 03:47:29;;;;;;;3.00;1.40;;;19.80;62.20;;;;;;2087520;28;20029;-88
2022/08/29 03:48:32;;;;;;;2.67;1.10;;;19.80;62.20;;;;;;2091565;28;20116;-88
2022/08/29 03:49:33;;;;;;;3.28;1.63;;;19.90;62.20;;;;;;2089296;28;20033;-89
2022/08/29 03:50:34;;;;;;;4.32;1.35;;;19.80;62.20;;;;;;2084198;28;20275;-89
2022/08/29 03:51:37;;;;;;;2.67;1.30;;;19.80;62.20;;;;;;2083074;28;20124;-89
2022/08/29 03:52:38;;;;;;;3.95;1.30;;;19.80;62.10;;;;;;2075917;28;20022;-89
2022/08/29 03:53:39;;;;;;;2.33;1.63;;;19.80;62.20;;;;;;2083153;28;20262;-90
2022/08/29 03:54:40;;;;;;;3.57;1.53;;;19.80;63.10;;;;;;2078012;28;20122;-88
2022/08/29 03:55:41;;;;;;;5.43;1.70;;;19.80;62.30;;;;;;2074318;28;20039;-90
2022/08/29 03:56:41;;;;;;;2.47;1.30;;;19.70;62.30;;;;;;2097100;28;20500;-89
2022/08/29 03:57:44;;;;;;;1.98;1.20;;;19.70;62.40;;;;;;2091009;28;20343;-89
2022/08/29 03:58:44;;;;;;;;;;;19.70;62.40;;;;;;2091902;28;20021;-88
2022/08/29 03:59:46;;;;;;;6.72;1.50;;;19.70;62.50;;;;;;2091304;28;19905;-88
2022/08/29 04:00:47;;;;;;;2.50;1.30;;;19.70;62.50;;;;;;2091289;28;20041;-90
2022/08/29 04:01:49;;;;;;;3.43;1.40;;;19.70;62.50;;;;;;2083003;28;20041;-88
2022/08/29 04:02:52;;;;;;;;;;;19.70;62.50;;;;;;2077513;28;20349;-89
2022/08/29 04:03:55;;;;;;;2.33;1.52;;;19.80;62.60;;;;;;2099918;28;19951;-91
2022/08/29 04:05:08;;;;;;;1.70;1.20;;;19.70;62.50;;;;;;2091440;28;20269;-88
2022/08/29 04:06:10;;;;;;;2.05;1.30;;;19.80;62.60;;;;;;2084814;28;20263;-89
2022/08/29 04:07:14;;;;;;;3.63;1.42;;;19.70;62.60;;;;;;2078242;28;20608;-90
2022/08/29 04:08:14;;;;;;;3.00;1.42;;;19.70;62.60;;;;;;2092207;28;20098;-90
2022/08/29 04:09:15;;;;;;;5.50;1.42;;;19.70;62.60;;;;;;2084092;28;20341;-90
2022/08/29 04:10:21;;;;;;;3.83;1.53;;;19.70;62.70;;;;;;2091843;28;20061;-88
2022/08/29 04:11:23;;;;;;;2.90;1.40;;;19.60;62.80;;;;;;2107945;28;20446;-89
2022/08/29 04:12:24;;;;;;;3.00;1.40;;;19.70;62.80;;;;;;2091574;28;20274;-89
2022/08/29 04:13:25;;;;;;;2.38;1.33;;;19.70;62.80;;;;;;2091261;28;20269;-88
2022/08/29 04:14:26;;;;;;;4.17;1.53;;;19.70;62.70;;;;;;2098129;28;20040;-89
2022/08/29 04:15:28;;;;;;;2.17;1.50;;;19.60;62.80;;;;;;2082210;28;20030;-88
2022/08/29 04:16:28;;;;;;;3.03;1.40;;;19.70;62.90;;;;;;2082975;28;20021;-89
2022/08/29 04:17:29;;;;;;;3.85;1.55;;;19.70;62.90;;;;;;2082987;28;20751;-90
2022/08/29 04:18:30;;;;;;;2.83;1.60;;;19.70;62.70;;;;;;2091219;28;20021;-89
2022/08/29 04:19:32;;;;;;;4.97;1.53;;;19.70;62.70;;;;;;2089783;28;20087;-88
2022/08/29 04:20:36;;;;;;;6.10;1.50;;;19.80;62.60;;;;;;2091414;28;20094;-88
2022/08/29 04:21:37;;;;;;;2.78;1.48;;;19.70;62.50;;;;;;2091596;28;20588;-89
2022/08/29 04:22:40;;;;;;;3.67;1.67;;;19.70;62.60;;;;;;2090359;28;20274;-90
2022/08/29 04:23:41;;;;;;;3.13;1.50;;;19.70;62.70;;;;;;2083813;28;20146;-89
2022/08/29 04:24:42;;;;;;;2.13;1.15;;;19.70;62.60;;;;;;2090247;28;20328;-88
2022/08/29 04:25:43;;;;;;;2.10;1.30;;;19.70;62.60;;;;;;2091077;28;20446;-89
2022/08/29 04:26:44;;;;;;;3.50;1.23;;;19.70;62.60;;;;;;2082957;28;20033;-90
2022/08/29 04:27:46;;;;;;;5.47;1.23;;;19.70;62.70;;;;;;2082887;28;20044;-89
2022/08/29 04:28:46;;;;;;;3.85;1.38;;;19.70;62.60;;;;;;2082880;28;20037;-89
2022/08/29 04:29:47;;;;;;;1.70;1.10;;;19.70;62.60;;;;;;2082102;28;20073;-89
2022/08/29 04:30:50;;;;;;;2.43;1.40;;;19.70;62.60;;;;;;2082711;28;20037;-89
2022/08/29 04:31:51;;;;;;;2.55;1.30;;;19.70;62.60;;;;;;2099647;28;20020;-88
2022/08/29 04:32:52;;;;;;;2.78;1.42;;;19.70;62.70;;;;;;2095220;28;20262;-91
2022/08/29 04:33:53;;;;;;;2.70;1.30;;;19.70;62.80;;;;;;2091240;28;20060;-89
2022/08/29 04:34:57;;;;;;;1.77;1.00;;;19.70;62.70;;;;;;2082794;28;20262;-88
2022/08/29 04:35:58;;;;;;;3.58;1.40;;;19.70;62.70;;;;;;2090637;28;20028;-88
2022/08/29 04:36:58;;;;;;;2.60;1.40;;;19.70;62.70;;;;;;2082869;28;20262;-89
2022/08/29 04:37:59;;;;;;;1.80;1.30;;;19.70;62.70;;;;;;2099262;28;20104;-89
2022/08/29 04:39:00;;;;;;;4.22;1.30;;;19.70;62.80;;;;;;2090974;28;20025;-85
2022/08/29 04:40:01;;;;;;;2.87;1.40;;;19.70;62.80;;;;;;2091029;28;20104;-89
2022/08/29 04:41:07;;;;;;;2.65;1.40;;;19.60;62.60;;;;;;2089503;28;20128;-89
2022/08/29 04:42:09;;;;;;;3.00;1.60;;;19.70;62.80;;;;;;2083359;28;20037;-88
2022/08/29 04:43:10;;;;;;;3.15;1.15;;;19.60;62.80;;;;;;2092267;28;20253;-89
2022/08/29 04:44:12;;;;;;;2.10;1.27;;;19.60;62.70;;;;;;2082937;28;20030;-90
2022/08/29 04:45:16;;;;;;;3.22;1.60;;;19.70;62.80;;;;;;2090456;28;20039;-89
2022/08/29 04:46:17;;;;;;;4.35;1.50;;;19.70;62.80;;;;;;2083671;28;20025;-90
2022/08/29 04:47:21;;;;;;;5.18;1.27;;;19.70;62.80;;;;;;2091231;28;20250;-90
2022/08/29 04:48:21;;;;;;;3.88;1.60;;;19.70;62.70;;;;;;2088766;28;20020;-89
2022/08/29 04:49:22;;;;;;;3.15;1.25;;;19.70;62.80;;;;;;2090140;28;20763;-90
2022/08/29 04:50:24;;;;;;;1.92;1.40;;;19.70;62.80;;;;;;2082595;28;20056;-89
2022/08/29 04:51:28;;;;;;;2.63;1.38;;;19.60;62.70;;;;;;2083878;28;20017;-89
2022/08/29 04:52:29;;;;;;;2.45;1.45;;;19.60;62.70;;;;;;2083276;28;20270;-89
2022/08/29 04:53:30;;;;;;;3.87;1.73;;;19.60;62.80;;;;;;2088591;28;20033;-89
2022/08/29 04:54:31;;;;;;;2.57;1.20;;;19.60;63.00;;;;;;2090879;28;20057;-89
2022/08/29 04:55:31;;;;;;;2.80;1.47;;;19.60;62.90;;;;;;2090226;28;20120;-89
2022/08/29 04:56:32;;;;;;;3.87;1.70;;;19.60;62.90;;;;;;2090965;28;20020;-89
2022/08/29 04:57:35;;;;;;;5.40;2.13;;;19.60;62.90;;;;;;2074616;28;20026;-89
2022/08/29 04:58:38;;;;;;;2.55;1.73;;;19.60;62.90;;;;;;2080705;28;20036;-88
2022/08/29 04:59:38;;;;;;;5.55;1.65;;;19.60;62.90;;;;;;2090839;28;20315;-89
2022/08/29 05:00:39;;;;;;;5.05;2.25;;;19.60;62.90;;;;;;2090809;28;20284;-90
2022/08/29 05:01:40;;;;;;;4.23;2.07;;;19.60;62.90;;;;;;2094112;28;20025;-90
2022/08/29 05:02:42;;;;;;;3.67;2.47;;;19.60;62.90;;;;;;2106929;28;20071;-89
2022/08/29 05:03:43;;;;;;;5.05;2.70;;;19.60;63.00;;;;;;2097206;28;20032;-88
2022/08/29 05:04:46;;;;;;;5.87;2.70;;;19.60;62.90;;;;;;2090615;28;20266;-88
2022/08/29 05:05:56;;;;;;;3.70;2.50;;;19.60;62.90;;;;;;2090987;28;20302;-89
2022/08/29 05:06:57;;;;;;;6.28;2.47;;;19.60;62.90;;;;;;2091999;28;20739;-90
2022/08/29 05:07:58;;;;;;;5.20;2.50;;;19.60;63.00;;;;;;2090843;28;20241;-90
2022/08/29 05:08:58;;;;;;;4.93;2.60;;;19.60;63.00;;;;;;2098304;28;20029;-89
2022/08/29 05:10:05;;;;;;;4.57;2.57;;;19.60;63.00;;;;;;2089628;28;20072;-90
2022/08/29 05:11:10;;;;;;;5.28;2.90;;;19.60;63.10;;;;;;2084244;28;20026;-90
2022/08/29 05:12:11;;;;;;;6.68;2.72;;;19.60;63.10;;;;;;2091334;28;20299;-91
2022/08/29 05:13:12;;;;;;;4.32;2.40;;;19.60;63.10;;;;;;2082633;28;20281;-89
2022/08/29 05:14:13;;;;;;;4.00;2.00;;;19.60;63.10;;;;;;2089749;28;20021;-91
2022/08/29 05:15:14;;;;;;;6.00;1.90;;;19.60;63.20;;;;;;2090650;28;20039;-90
2022/08/29 05:16:17;;;;;;;5.32;2.30;;;19.50;63.00;;;;;;2090036;28;20025;-89
2022/08/29 05:17:17;;;;;;;5.65;2.33;;;19.50;63.00;;;;;;2090646;28;20028;-88
2022/08/29 05:18:19;;;;;;;4.43;1.98;;;19.50;63.30;;;;;;2090725;28;20289;-89
2022/08/29 05:19:20;;;;;;;3.67;2.00;;;19.50;63.60;;;;;;2098683;28;20032;-88
2022/08/29 05:20:20;;;;;;;3.67;1.88;;;19.50;63.30;;;;;;2090558;28;20076;-88
2022/08/29 05:21:32;;;;;;;4.23;2.10;;;19.50;63.30;;;;;;2090619;28;20468;-90
2022/08/29 05:22:34;;;;;;;5.93;1.95;;;19.50;63.50;;;;;;2083333;28;20061;-88
2022/08/29 05:23:34;;;;;;;3.00;1.70;;;19.50;63.40;;;;;;2075061;28;20030;-90
2022/08/29 05:24:36;;;;;;;2.87;1.60;;;19.50;63.40;;;;;;2082405;28;20648;-88
2022/08/29 05:25:37;;;;;;;3.50;1.75;;;19.50;63.40;;;;;;2091057;28;20029;-88
2022/08/29 05:26:44;;;;;;;4.60;1.73;;;19.50;63.40;;;;;;2100211;28;20087;-88
2022/08/29 05:27:45;;;;;;;6.30;2.10;;;19.50;63.40;;;;;;2100217;28;20454;-88
2022/08/29 05:28:46;;;;;;;5.35;1.70;;;19.50;63.40;;;;;;2100750;28;20627;-90
2022/08/29 05:29:50;;;;;;;4.90;2.13;;;19.50;63.40;;;;;;2108598;28;20032;-89
2022/08/29 05:30:51;;;;;;;2.92;1.65;;;19.50;63.40;;;;;;2096086;28;20378;-89
2022/08/29 05:31:51;;;;;;;5.90;2.10;;;19.50;63.40;;;;;;2076125;28;20271;-90
2022/08/29 05:32:53;;;;;;;3.63;2.03;;;19.40;63.50;;;;;;2091415;28;20363;-87
2022/08/29 05:33:54;;;;;;;;;;;19.40;63.60;;;;;;2093126;28;20455;-89
2022/08/29 05:34:55;;;;;;;4.22;1.90;;;19.40;63.70;;;;;;2092497;28;19942;-87
2022/08/29 05:35:57;;;;;;;4.70;1.83;;;19.40;63.60;;;;;;2100117;28;20021;-90
2022/08/29 05:36:58;;;;;;;5.28;2.10;;;19.40;63.60;;;;;;2092664;28;20048;-89
2022/08/29 05:38:01;;;;;;;3.83;2.00;;;19.40;63.60;;;;;;2100578;28;20729;-88
2022/08/29 05:39:02;;;;;;;4.53;2.38;;;19.40;63.60;;;;;;2092491;28;20028;-90